sensor_id;sensor_type;location;lat;lon;timestamp;P1;durP1;ratioP1;P2;durP2;ratioP2
57551;SDS011;43379;48.160;14.036;2023-02-10T00:02:24;17.57;;;14.87;;
57551;SDS011;43379;48.160;14.036;2023-02-10T00:04:50;19.57;;;15.90;;
57551;SDS011;43379;48.160;14.036;2023-02-10T00:07:18;20.97;;;15.40;;
57551;SDS011;43379;48.160;14.036;2023-02-10T00:09:44;21.07;;;17.63;;
57551;SDS011;43379;48.160;14.036;2023-02-10T00:12:10;20.90;;;15.37;;
57551;SDS011;43379;48.160;14.036;2023-02-10T00:14:37;26.97;;;18.00;;
57551;SDS011;43379;48.160;14.036;2023-02-10T00:17:03;20.70;;;16.83;;
57551;SDS011;43379;48.160;14.036;2023-02-10T00:19:29;18.73;;;16.70;;
57551;SDS011;43379;48.160;14.036;2023-02-10T00:21:58;20.97;;;17.43;;
57551;SDS011;43379;48.160;14.036;2023-02-10T00:24:26;24.30;;;18.07;;
57551;SDS011;43379;48.160;14.036;2023-02-10T00:26:52;19.17;;;16.20;;
57551;SDS011;43379;48.160;14.036;2023-02-10T00:29:18;20.03;;;16.67;;
57551;SDS011;43379;48.160;14.036;2023-02-10T00:31:44;24.00;;;17.80;;
57551;SDS011;43379;48.160;14.036;2023-02-10T00:34:10;20.30;;;17.07;;
57551;SDS011;43379;48.160;14.036;2023-02-10T00:36:38;19.90;;;16.73;;
57551;SDS011;43379;48.160;14.036;2023-02-10T00:39:04;19.73;;;16.47;;
57551;SDS011;43379;48.160;14.036;2023-02-10T00:41:29;20.90;;;17.13;;
57551;SDS011;43379;48.160;14.036;2023-02-10T00:43:55;23.60;;;19.77;;
57551;SDS011;43379;48.160;14.036;2023-02-10T00:46:21;21.47;;;16.37;;
57551;SDS011;43379;48.160;14.036;2023-02-10T00:48:47;22.60;;;18.40;;
57551;SDS011;43379;48.160;14.036;2023-02-10T00:51:14;19.60;;;17.60;;
57551;SDS011;43379;48.160;14.036;2023-02-10T00:53:41;22.80;;;16.80;;
57551;SDS011;43379;48.160;14.036;2023-02-10T00:56:07;21.70;;;16.30;;
57551;SDS011;43379;48.160;14.036;2023-02-10T00:58:33;23.50;;;17.87;;
57551;SDS011;43379;48.160;14.036;2023-02-10T01:00:59;18.30;;;15.57;;
57551;SDS011;43379;48.160;14.036;2023-02-10T01:03:24;22.53;;;17.00;;
57551;SDS011;43379;48.160;14.036;2023-02-10T01:05:50;21.70;;;17.27;;
57551;SDS011;43379;48.160;14.036;2023-02-10T01:08:16;18.90;;;16.90;;
57551;SDS011;43379;48.160;14.036;2023-02-10T01:10:43;22.17;;;17.10;;
57551;SDS011;43379;48.160;14.036;2023-02-10T01:13:09;20.70;;;17.50;;
57551;SDS011;43379;48.160;14.036;2023-02-10T01:15:40;19.73;;;17.20;;
57551;SDS011;43379;48.160;14.036;2023-02-10T01:18:07;18.70;;;16.20;;
57551;SDS011;43379;48.160;14.036;2023-02-10T01:20:33;22.63;;;17.10;;
57551;SDS011;43379;48.160;14.036;2023-02-10T01:22:58;20.30;;;16.30;;
57551;SDS011;43379;48.160;14.036;2023-02-10T01:25:24;19.50;;;15.43;;
57551;SDS011;43379;48.160;14.036;2023-02-10T01:27:49;21.33;;;16.80;;
57551;SDS011;43379;48.160;14.036;2023-02-10T01:30:15;19.60;;;16.93;;
57551;SDS011;43379;48.160;14.036;2023-02-10T01:32:41;22.17;;;17.23;;
57551;SDS011;43379;48.160;14.036;2023-02-10T01:35:06;19.90;;;16.73;;
57551;SDS011;43379;48.160;14.036;2023-02-10T01:37:33;17.90;;;15.87;;
57551;SDS011;43379;48.160;14.036;2023-02-10T01:40:01;17.87;;;15.63;;
57551;SDS011;43379;48.160;14.036;2023-02-10T01:42:27;18.03;;;16.17;;
57551;SDS011;43379;48.160;14.036;2023-02-10T01:47:18;21.17;;;16.50;;
57551;SDS011;43379;48.160;14.036;2023-02-10T01:49:47;22.17;;;16.57;;
57551;SDS011;43379;48.160;14.036;2023-02-10T01:52:22;21.73;;;15.63;;
57551;SDS011;43379;48.160;14.036;2023-02-10T01:55:13;17.80;;;15.97;;
57551;SDS011;43379;48.160;14.036;2023-02-10T01:57:40;19.73;;;15.60;;
57551;SDS011;43379;48.160;14.036;2023-02-10T02:00:08;22.73;;;16.77;;
57551;SDS011;43379;48.160;14.036;2023-02-10T02:02:35;22.53;;;16.07;;
57551;SDS011;43379;48.160;14.036;2023-02-10T02:05:04;20.73;;;16.47;;
57551;SDS011;43379;48.160;14.036;2023-02-10T02:07:35;20.23;;;15.57;;
57551;SDS011;43379;48.160;14.036;2023-02-10T02:10:02;20.60;;;17.00;;
57551;SDS011;43379;48.160;14.036;2023-02-10T02:12:40;18.70;;;15.23;;
57551;SDS011;43379;48.160;14.036;2023-02-10T02:15:14;19.10;;;17.07;;
57551;SDS011;43379;48.160;14.036;2023-02-10T02:17:53;19.13;;;15.60;;
57551;SDS011;43379;48.160;14.036;2023-02-10T02:26:26;20.27;;;16.03;;
57551;SDS011;43379;48.160;14.036;2023-02-10T02:39:41;21.20;;;16.87;;
57551;SDS011;43379;48.160;14.036;2023-02-10T02:44:40;21.10;;;14.93;;
57551;SDS011;43379;48.160;14.036;2023-02-10T02:49:45;24.10;;;15.77;;
57551;SDS011;43379;48.160;14.036;2023-02-10T02:52:23;22.03;;;16.30;;
57551;SDS011;43379;48.160;14.036;2023-02-10T02:55:03;23.13;;;16.63;;
57551;SDS011;43379;48.160;14.036;2023-02-10T02:57:56;21.10;;;17.30;;
57551;SDS011;43379;48.160;14.036;2023-02-10T03:00:27;24.37;;;17.57;;
57551;SDS011;43379;48.160;14.036;2023-02-10T03:02:56;21.97;;;16.73;;
57551;SDS011;43379;48.160;14.036;2023-02-10T03:05:27;17.90;;;15.33;;
57551;SDS011;43379;48.160;14.036;2023-02-10T03:07:54;21.10;;;15.63;;
57551;SDS011;43379;48.160;14.036;2023-02-10T03:10:20;16.53;;;14.77;;
57551;SDS011;43379;48.160;14.036;2023-02-10T03:12:46;18.00;;;15.67;;
57551;SDS011;43379;48.160;14.036;2023-02-10T03:15:12;21.17;;;16.20;;
57551;SDS011;43379;48.160;14.036;2023-02-10T03:17:38;19.10;;;16.10;;
57551;SDS011;43379;48.160;14.036;2023-02-10T03:20:04;20.30;;;16.63;;
57551;SDS011;43379;48.160;14.036;2023-02-10T03:22:30;19.47;;;16.70;;
57551;SDS011;43379;48.160;14.036;2023-02-10T03:24:55;17.27;;;15.47;;
57551;SDS011;43379;48.160;14.036;2023-02-10T03:27:21;20.80;;;15.17;;
57551;SDS011;43379;48.160;14.036;2023-02-10T03:29:47;15.47;;;13.87;;
57551;SDS011;43379;48.160;14.036;2023-02-10T03:32:14;19.30;;;17.13;;
57551;SDS011;43379;48.160;14.036;2023-02-10T03:34:40;18.50;;;15.33;;
57551;SDS011;43379;48.160;14.036;2023-02-10T03:37:06;19.10;;;14.93;;
57551;SDS011;43379;48.160;14.036;2023-02-10T03:39:32;18.13;;;14.17;;
57551;SDS011;43379;48.160;14.036;2023-02-10T03:41:57;18.80;;;15.57;;
57551;SDS011;43379;48.160;14.036;2023-02-10T03:44:23;19.83;;;15.53;;
57551;SDS011;43379;48.160;14.036;2023-02-10T03:46:49;17.87;;;14.53;;
57551;SDS011;43379;48.160;14.036;2023-02-10T03:49:14;23.20;;;17.23;;
57551;SDS011;43379;48.160;14.036;2023-02-10T03:51:40;16.63;;;14.83;;
57551;SDS011;43379;48.160;14.036;2023-02-10T03:54:05;19.23;;;14.97;;
57551;SDS011;43379;48.160;14.036;2023-02-10T03:56:31;19.97;;;17.43;;
57551;SDS011;43379;48.160;14.036;2023-02-10T03:58:59;21.03;;;16.50;;
57551;SDS011;43379;48.160;14.036;2023-02-10T04:01:26;20.20;;;16.40;;
57551;SDS011;43379;48.160;14.036;2023-02-10T04:03:52;18.00;;;14.37;;
57551;SDS011;43379;48.160;14.036;2023-02-10T04:06:17;18.47;;;15.00;;
57551;SDS011;43379;48.160;14.036;2023-02-10T04:08:43;21.37;;;15.83;;
57551;SDS011;43379;48.160;14.036;2023-02-10T04:11:08;17.87;;;15.87;;
57551;SDS011;43379;48.160;14.036;2023-02-10T04:13:35;16.60;;;14.80;;
57551;SDS011;43379;48.160;14.036;2023-02-10T04:18:31;20.57;;;15.50;;
57551;SDS011;43379;48.160;14.036;2023-02-10T04:20:56;19.37;;;15.43;;
57551;SDS011;43379;48.160;14.036;2023-02-10T04:23:22;19.80;;;16.73;;
57551;SDS011;43379;48.160;14.036;2023-02-10T04:25:48;20.07;;;15.87;;
57551;SDS011;43379;48.160;14.036;2023-02-10T04:28:13;22.97;;;15.13;;
57551;SDS011;43379;48.160;14.036;2023-02-10T04:30:39;17.97;;;15.30;;
57551;SDS011;43379;48.160;14.036;2023-02-10T04:33:05;22.70;;;17.07;;
57551;SDS011;43379;48.160;14.036;2023-02-10T04:35:30;17.50;;;14.93;;
57551;SDS011;43379;48.160;14.036;2023-02-10T04:37:56;18.80;;;14.10;;
57551;SDS011;43379;48.160;14.036;2023-02-10T04:40:23;19.60;;;15.70;;
57551;SDS011;43379;48.160;14.036;2023-02-10T04:42:49;17.07;;;14.10;;
57551;SDS011;43379;48.160;14.036;2023-02-10T04:45:15;19.43;;;16.07;;
57551;SDS011;43379;48.160;14.036;2023-02-10T04:47:40;18.63;;;16.07;;
57551;SDS011;43379;48.160;14.036;2023-02-10T04:50:06;16.03;;;14.53;;
57551;SDS011;43379;48.160;14.036;2023-02-10T04:52:32;21.30;;;14.90;;
57551;SDS011;43379;48.160;14.036;2023-02-10T04:54:57;18.53;;;14.37;;
57551;SDS011;43379;48.160;14.036;2023-02-10T04:57:23;18.30;;;15.37;;
57551;SDS011;43379;48.160;14.036;2023-02-10T04:59:49;19.43;;;16.73;;
57551;SDS011;43379;48.160;14.036;2023-02-10T05:02:14;17.70;;;15.87;;
57551;SDS011;43379;48.160;14.036;2023-02-10T05:04:40;17.97;;;16.17;;
57551;SDS011;43379;48.160;14.036;2023-02-10T05:07:06;22.70;;;15.47;;
57551;SDS011;43379;48.160;14.036;2023-02-10T05:09:31;18.30;;;16.30;;
57551;SDS011;43379;48.160;14.036;2023-02-10T05:11:57;17.27;;;14.80;;
57551;SDS011;43379;48.160;14.036;2023-02-10T05:14:22;20.60;;;15.77;;
57551;SDS011;43379;48.160;14.036;2023-02-10T05:16:48;20.80;;;15.20;;
57551;SDS011;43379;48.160;14.036;2023-02-10T05:19:14;16.67;;;15.00;;
57551;SDS011;43379;48.160;14.036;2023-02-10T05:21:39;18.87;;;15.70;;
57551;SDS011;43379;48.160;14.036;2023-02-10T05:24:05;18.73;;;14.97;;
57551;SDS011;43379;48.160;14.036;2023-02-10T05:26:31;17.43;;;13.30;;
57551;SDS011;43379;48.160;14.036;2023-02-10T05:28:56;17.40;;;15.20;;
57551;SDS011;43379;48.160;14.036;2023-02-10T05:31:22;18.47;;;14.67;;
57551;SDS011;43379;48.160;14.036;2023-02-10T05:33:48;17.87;;;14.93;;
57551;SDS011;43379;48.160;14.036;2023-02-10T05:36:13;18.70;;;15.30;;
57551;SDS011;43379;48.160;14.036;2023-02-10T05:38:39;17.90;;;16.00;;
57551;SDS011;43379;48.160;14.036;2023-02-10T05:41:25;20.90;;;15.30;;
57551;SDS011;43379;48.160;14.036;2023-02-10T05:43:50;21.83;;;16.13;;
57551;SDS011;43379;48.160;14.036;2023-02-10T05:46:16;20.53;;;16.30;;
57551;SDS011;43379;48.160;14.036;2023-02-10T05:48:41;19.90;;;14.80;;
57551;SDS011;43379;48.160;14.036;2023-02-10T05:51:07;20.53;;;14.83;;
57551;SDS011;43379;48.160;14.036;2023-02-10T05:53:33;18.63;;;14.47;;
57551;SDS011;43379;48.160;14.036;2023-02-10T05:55:58;17.60;;;14.03;;
57551;SDS011;43379;48.160;14.036;2023-02-10T05:58:24;16.87;;;14.23;;
57551;SDS011;43379;48.160;14.036;2023-02-10T06:00:49;17.80;;;14.83;;
57551;SDS011;43379;48.160;14.036;2023-02-10T06:03:15;21.70;;;16.70;;
57551;SDS011;43379;48.160;14.036;2023-02-10T06:05:41;19.80;;;15.73;;
57551;SDS011;43379;48.160;14.036;2023-02-10T06:08:08;16.50;;;14.73;;
57551;SDS011;43379;48.160;14.036;2023-02-10T06:10:34;19.97;;;17.10;;
57551;SDS011;43379;48.160;14.036;2023-02-10T06:12:59;20.83;;;16.70;;
57551;SDS011;43379;48.160;14.036;2023-02-10T06:15:25;22.77;;;15.83;;
57551;SDS011;43379;48.160;14.036;2023-02-10T06:17:50;17.73;;;15.87;;
57551;SDS011;43379;48.160;14.036;2023-02-10T06:20:16;18.77;;;16.50;;
57551;SDS011;43379;48.160;14.036;2023-02-10T06:22:42;18.40;;;15.10;;
57551;SDS011;43379;48.160;14.036;2023-02-10T06:25:07;22.23;;;17.73;;
57551;SDS011;43379;48.160;14.036;2023-02-10T06:27:34;20.03;;;15.93;;
57551;SDS011;43379;48.160;14.036;2023-02-10T06:29:59;21.60;;;16.27;;
57551;SDS011;43379;48.160;14.036;2023-02-10T06:32:25;24.03;;;18.80;;
57551;SDS011;43379;48.160;14.036;2023-02-10T06:34:50;23.13;;;18.60;;
57551;SDS011;43379;48.160;14.036;2023-02-10T06:37:16;22.90;;;16.53;;
57551;SDS011;43379;48.160;14.036;2023-02-10T06:39:42;21.83;;;17.27;;
57551;SDS011;43379;48.160;14.036;2023-02-10T06:42:08;25.90;;;19.10;;
57551;SDS011;43379;48.160;14.036;2023-02-10T06:44:33;18.80;;;16.60;;
57551;SDS011;43379;48.160;14.036;2023-02-10T06:46:59;20.97;;;18.40;;
57551;SDS011;43379;48.160;14.036;2023-02-10T06:49:24;22.17;;;17.40;;
57551;SDS011;43379;48.160;14.036;2023-02-10T06:51:50;20.87;;;16.03;;
57551;SDS011;43379;48.160;14.036;2023-02-10T06:54:16;21.00;;;16.77;;
57551;SDS011;43379;48.160;14.036;2023-02-10T06:56:42;24.43;;;17.13;;
57551;SDS011;43379;48.160;14.036;2023-02-10T06:59:10;19.87;;;14.90;;
57551;SDS011;43379;48.160;14.036;2023-02-10T07:01:36;19.27;;;14.90;;
57551;SDS011;43379;48.160;14.036;2023-02-10T07:04:02;22.53;;;15.57;;
57551;SDS011;43379;48.160;14.036;2023-02-10T07:06:28;19.83;;;14.67;;
57551;SDS011;43379;48.160;14.036;2023-02-10T07:08:54;16.77;;;14.30;;
57551;SDS011;43379;48.160;14.036;2023-02-10T07:11:19;18.93;;;15.50;;
57551;SDS011;43379;48.160;14.036;2023-02-10T07:13:45;19.97;;;14.63;;
57551;SDS011;43379;48.160;14.036;2023-02-10T07:16:11;18.27;;;16.37;;
57551;SDS011;43379;48.160;14.036;2023-02-10T07:18:39;17.50;;;15.37;;
57551;SDS011;43379;48.160;14.036;2023-02-10T07:21:05;20.20;;;16.10;;
57551;SDS011;43379;48.160;14.036;2023-02-10T07:23:31;22.83;;;16.80;;
57551;SDS011;43379;48.160;14.036;2023-02-10T07:25:56;18.07;;;16.17;;
57551;SDS011;43379;48.160;14.036;2023-02-10T07:28:22;22.97;;;17.53;;
57551;SDS011;43379;48.160;14.036;2023-02-10T07:30:48;25.07;;;17.50;;
57551;SDS011;43379;48.160;14.036;2023-02-10T07:33:13;24.23;;;16.60;;
57551;SDS011;43379;48.160;14.036;2023-02-10T07:35:39;18.90;;;16.90;;
57551;SDS011;43379;48.160;14.036;2023-02-10T07:38:05;19.70;;;16.50;;
57551;SDS011;43379;48.160;14.036;2023-02-10T07:40:30;24.87;;;17.40;;
57551;SDS011;43379;48.160;14.036;2023-02-10T07:42:56;24.87;;;18.67;;
57551;SDS011;43379;48.160;14.036;2023-02-10T07:45:22;23.73;;;19.53;;
57551;SDS011;43379;48.160;14.036;2023-02-10T07:47:47;24.37;;;18.07;;
57551;SDS011;43379;48.160;14.036;2023-02-10T07:50:13;22.30;;;19.13;;
57551;SDS011;43379;48.160;14.036;2023-02-10T07:52:39;21.47;;;18.40;;
57551;SDS011;43379;48.160;14.036;2023-02-10T07:55:06;21.30;;;18.53;;
57551;SDS011;43379;48.160;14.036;2023-02-10T07:57:32;24.63;;;19.50;;
57551;SDS011;43379;48.160;14.036;2023-02-10T07:59:58;24.17;;;18.17;;
57551;SDS011;43379;48.160;14.036;2023-02-10T08:02:23;21.90;;;17.60;;
57551;SDS011;43379;48.160;14.036;2023-02-10T08:04:49;20.57;;;17.20;;
57551;SDS011;43379;48.160;14.036;2023-02-10T08:07:17;21.07;;;17.63;;
57551;SDS011;43379;48.160;14.036;2023-02-10T08:09:42;21.00;;;18.00;;
57551;SDS011;43379;48.160;14.036;2023-02-10T08:12:08;20.77;;;18.30;;
57551;SDS011;43379;48.160;14.036;2023-02-10T08:14:34;18.43;;;16.50;;
57551;SDS011;43379;48.160;14.036;2023-02-10T08:16:59;21.13;;;18.43;;
57551;SDS011;43379;48.160;14.036;2023-02-10T08:19:25;18.50;;;16.60;;
57551;SDS011;43379;48.160;14.036;2023-02-10T08:21:50;21.50;;;19.40;;
57551;SDS011;43379;48.160;14.036;2023-02-10T08:24:16;20.23;;;18.33;;
57551;SDS011;43379;48.160;14.036;2023-02-10T08:26:42;20.23;;;18.10;;
57551;SDS011;43379;48.160;14.036;2023-02-10T08:29:08;20.80;;;18.60;;
57551;SDS011;43379;48.160;14.036;2023-02-10T08:31:34;19.87;;;17.87;;
57551;SDS011;43379;48.160;14.036;2023-02-10T08:33:59;21.97;;;19.63;;
57551;SDS011;43379;48.160;14.036;2023-02-10T08:36:25;19.50;;;17.70;;
57551;SDS011;43379;48.160;14.036;2023-02-10T08:38:51;22.53;;;20.20;;
57551;SDS011;43379;48.160;14.036;2023-02-10T08:41:16;21.77;;;19.67;;
57551;SDS011;43379;48.160;14.036;2023-02-10T08:43:42;22.03;;;19.83;;
57551;SDS011;43379;48.160;14.036;2023-02-10T08:46:08;22.93;;;20.53;;
57551;SDS011;43379;48.160;14.036;2023-02-10T08:48:34;23.93;;;21.60;;
57551;SDS011;43379;48.160;14.036;2023-02-10T08:51:00;23.97;;;21.40;;
57551;SDS011;43379;48.160;14.036;2023-02-10T08:53:30;25.47;;;22.97;;
57551;SDS011;43379;48.160;14.036;2023-02-10T08:55:56;25.47;;;22.97;;
57551;SDS011;43379;48.160;14.036;2023-02-10T08:58:23;25.47;;;22.87;;
57551;SDS011;43379;48.160;14.036;2023-02-10T09:00:49;24.77;;;22.20;;
57551;SDS011;43379;48.160;14.036;2023-02-10T09:03:15;25.40;;;21.60;;
57551;SDS011;43379;48.160;14.036;2023-02-10T09:05:41;23.97;;;21.33;;
57551;SDS011;43379;48.160;14.036;2023-02-10T09:08:08;24.77;;;22.27;;
57551;SDS011;43379;48.160;14.036;2023-02-10T09:10:34;26.17;;;23.57;;
57551;SDS011;43379;48.160;14.036;2023-02-10T09:13:00;27.80;;;24.93;;
57551;SDS011;43379;48.160;14.036;2023-02-10T09:15:25;25.13;;;22.63;;
57551;SDS011;43379;48.160;14.036;2023-02-10T09:17:51;24.80;;;22.30;;
57551;SDS011;43379;48.160;14.036;2023-02-10T09:20:17;25.20;;;22.80;;
57551;SDS011;43379;48.160;14.036;2023-02-10T09:22:43;26.50;;;24.00;;
57551;SDS011;43379;48.160;14.036;2023-02-10T09:25:09;27.20;;;24.43;;
57551;SDS011;43379;48.160;14.036;2023-02-10T09:27:35;27.07;;;24.30;;
57551;SDS011;43379;48.160;14.036;2023-02-10T09:30:00;30.30;;;25.33;;
57551;SDS011;43379;48.160;14.036;2023-02-10T09:32:26;28.30;;;25.50;;
57551;SDS011;43379;48.160;14.036;2023-02-10T09:34:52;29.50;;;26.70;;
57551;SDS011;43379;48.160;14.036;2023-02-10T09:37:17;28.63;;;25.80;;
57551;SDS011;43379;48.160;14.036;2023-02-10T09:39:43;27.10;;;24.20;;
57551;SDS011;43379;48.160;14.036;2023-02-10T09:45:09;28.10;;;25.33;;
57551;SDS011;43379;48.160;14.036;2023-02-10T09:47:45;28.03;;;25.13;;
57551;SDS011;43379;48.160;14.036;2023-02-10T09:55:41;29.00;;;26.20;;
57551;SDS011;43379;48.160;14.036;2023-02-10T10:03:40;31.27;;;28.40;;
57551;SDS011;43379;48.160;14.036;2023-02-10T10:08:57;30.03;;;27.03;;
57551;SDS011;43379;48.160;14.036;2023-02-10T10:13:54;30.30;;;27.33;;
57551;SDS011;43379;48.160;14.036;2023-02-10T10:24:50;28.27;;;25.07;;
57551;SDS011;43379;48.160;14.036;2023-02-10T10:30:38;28.77;;;25.70;;
57551;SDS011;43379;48.160;14.036;2023-02-10T10:36:02;27.10;;;24.33;;
57551;SDS011;43379;48.160;14.036;2023-02-10T10:38:31;27.50;;;24.70;;
57551;SDS011;43379;48.160;14.036;2023-02-10T10:41:04;27.90;;;24.80;;
57551;SDS011;43379;48.160;14.036;2023-02-10T10:43:37;31.00;;;26.07;;
57551;SDS011;43379;48.160;14.036;2023-02-10T10:46:15;29.90;;;23.83;;
57551;SDS011;43379;48.160;14.036;2023-02-10T10:48:49;30.30;;;25.20;;
57551;SDS011;43379;48.160;14.036;2023-02-10T10:51:15;29.30;;;26.20;;
57551;SDS011;43379;48.160;14.036;2023-02-10T10:53:43;29.70;;;24.90;;
57551;SDS011;43379;48.160;14.036;2023-02-10T10:59:00;26.87;;;23.97;;
57551;SDS011;43379;48.160;14.036;2023-02-10T11:01:40;27.33;;;24.40;;
57551;SDS011;43379;48.160;14.036;2023-02-10T11:04:12;28.13;;;23.93;;
57551;SDS011;43379;48.160;14.036;2023-02-10T11:06:46;28.97;;;24.67;;
57551;SDS011;43379;48.160;14.036;2023-02-10T11:09:22;29.40;;;24.33;;
57551;SDS011;43379;48.160;14.036;2023-02-10T11:12:00;26.27;;;22.93;;
57551;SDS011;43379;48.160;14.036;2023-02-10T11:14:45;28.03;;;24.33;;
57551;SDS011;43379;48.160;14.036;2023-02-10T11:17:20;28.57;;;25.20;;
57551;SDS011;43379;48.160;14.036;2023-02-10T11:20:36;27.57;;;23.83;;
57551;SDS011;43379;48.160;14.036;2023-02-10T11:22:37;29.17;;;23.90;;
57551;SDS011;43379;48.160;14.036;2023-02-10T11:25:23;27.77;;;23.30;;
57551;SDS011;43379;48.160;14.036;2023-02-10T11:27:55;29.57;;;23.40;;
57551;SDS011;43379;48.160;14.036;2023-02-10T11:30:32;30.27;;;25.63;;
57551;SDS011;43379;48.160;14.036;2023-02-10T11:33:00;26.47;;;22.97;;
57551;SDS011;43379;48.160;14.036;2023-02-10T11:35:27;26.47;;;22.30;;
57551;SDS011;43379;48.160;14.036;2023-02-10T11:38:00;28.87;;;24.80;;
57551;SDS011;43379;48.160;14.036;2023-02-10T11:40:31;25.40;;;22.80;;
57551;SDS011;43379;48.160;14.036;2023-02-10T11:43:35;27.90;;;24.00;;
57551;SDS011;43379;48.160;14.036;2023-02-10T11:46:22;28.83;;;24.10;;
57551;SDS011;43379;48.160;14.036;2023-02-10T11:49:03;28.80;;;24.80;;
57551;SDS011;43379;48.160;14.036;2023-02-10T11:51:32;29.23;;;23.17;;
57551;SDS011;43379;48.160;14.036;2023-02-10T11:53:57;28.30;;;24.90;;
57551;SDS011;43379;48.160;14.036;2023-02-10T12:01:58;30.07;;;24.63;;
57551;SDS011;43379;48.160;14.036;2023-02-10T12:04:35;25.77;;;21.90;;
57551;SDS011;43379;48.160;14.036;2023-02-10T12:15:37;27.67;;;24.63;;
57551;SDS011;43379;48.160;14.036;2023-02-10T12:26:53;26.73;;;23.87;;
57551;SDS011;43379;48.160;14.036;2023-02-10T12:29:32;30.20;;;23.87;;
57551;SDS011;43379;48.160;14.036;2023-02-10T12:41:08;27.73;;;24.23;;
57551;SDS011;43379;48.160;14.036;2023-02-10T12:43:49;28.03;;;24.23;;
57551;SDS011;43379;48.160;14.036;2023-02-10T12:57:43;26.97;;;23.27;;
57551;SDS011;43379;48.160;14.036;2023-02-10T13:00:13;31.07;;;25.87;;
57551;SDS011;43379;48.160;14.036;2023-02-10T13:02:48;27.10;;;24.17;;
57551;SDS011;43379;48.160;14.036;2023-02-10T13:05:32;25.57;;;22.80;;
57551;SDS011;43379;48.160;14.036;2023-02-10T13:08:03;29.60;;;24.53;;
57551;SDS011;43379;48.160;14.036;2023-02-10T13:10:45;29.03;;;24.90;;
57551;SDS011;43379;48.160;14.036;2023-02-10T13:13:27;30.37;;;26.60;;
57551;SDS011;43379;48.160;14.036;2023-02-10T13:16:03;28.83;;;24.87;;
57551;SDS011;43379;48.160;14.036;2023-02-10T13:18:38;25.83;;;23.10;;
57551;SDS011;43379;48.160;14.036;2023-02-10T13:21:17;26.33;;;23.30;;
57551;SDS011;43379;48.160;14.036;2023-02-10T13:24:00;30.23;;;24.37;;
57551;SDS011;43379;48.160;14.036;2023-02-10T13:34:28;30.80;;;25.40;;
57551;SDS011;43379;48.160;14.036;2023-02-10T13:40:00;27.77;;;24.53;;
57551;SDS011;43379;48.160;14.036;2023-02-10T13:42:30;27.57;;;23.50;;
57551;SDS011;43379;48.160;14.036;2023-02-10T13:47:41;29.00;;;24.60;;
57551;SDS011;43379;48.160;14.036;2023-02-10T13:52:56;33.80;;;25.10;;
57551;SDS011;43379;48.160;14.036;2023-02-10T13:55:27;29.03;;;23.77;;
57551;SDS011;43379;48.160;14.036;2023-02-10T14:00:29;30.30;;;25.17;;
57551;SDS011;43379;48.160;14.036;2023-02-10T14:05:36;29.13;;;23.27;;
57551;SDS011;43379;48.160;14.036;2023-02-10T14:08:42;27.20;;;23.30;;
57551;SDS011;43379;48.160;14.036;2023-02-10T14:13:39;30.20;;;24.83;;
57551;SDS011;43379;48.160;14.036;2023-02-10T14:18:57;33.40;;;24.83;;
57551;SDS011;43379;48.160;14.036;2023-02-10T14:21:24;27.17;;;23.00;;
57551;SDS011;43379;48.160;14.036;2023-02-10T14:23:52;29.00;;;23.10;;
57551;SDS011;43379;48.160;14.036;2023-02-10T14:26:21;28.23;;;24.50;;
57551;SDS011;43379;48.160;14.036;2023-02-10T14:28:52;34.93;;;24.00;;
57551;SDS011;43379;48.160;14.036;2023-02-10T14:31:20;29.00;;;22.90;;
57551;SDS011;43379;48.160;14.036;2023-02-10T14:33:58;31.20;;;24.00;;
57551;SDS011;43379;48.160;14.036;2023-02-10T14:36:26;33.13;;;22.73;;
57551;SDS011;43379;48.160;14.036;2023-02-10T14:38:56;30.03;;;23.93;;
57551;SDS011;43379;48.160;14.036;2023-02-10T14:41:24;27.80;;;23.27;;
57551;SDS011;43379;48.160;14.036;2023-02-10T14:43:52;25.60;;;21.57;;
57551;SDS011;43379;48.160;14.036;2023-02-10T14:46:22;24.73;;;21.83;;
57551;SDS011;43379;48.160;14.036;2023-02-10T14:48:57;25.77;;;23.00;;
57551;SDS011;43379;48.160;14.036;2023-02-10T14:51:26;31.87;;;23.60;;
57551;SDS011;43379;48.160;14.036;2023-02-10T14:53:53;28.07;;;22.10;;
57551;SDS011;43379;48.160;14.036;2023-02-10T14:56:24;29.07;;;24.30;;
57551;SDS011;43379;48.160;14.036;2023-02-10T14:58:51;30.30;;;22.60;;
57551;SDS011;43379;48.160;14.036;2023-02-10T15:01:22;28.43;;;24.20;;
57551;SDS011;43379;48.160;14.036;2023-02-10T15:03:51;26.50;;;21.60;;
57551;SDS011;43379;48.160;14.036;2023-02-10T15:06:18;32.87;;;26.37;;
57551;SDS011;43379;48.160;14.036;2023-02-10T15:08:54;33.43;;;24.30;;
57551;SDS011;43379;48.160;14.036;2023-02-10T15:11:30;29.60;;;23.13;;
57551;SDS011;43379;48.160;14.036;2023-02-10T15:14:28;31.17;;;24.10;;
57551;SDS011;43379;48.160;14.036;2023-02-10T15:17:21;35.00;;;23.17;;
57551;SDS011;43379;48.160;14.036;2023-02-10T15:20:20;31.07;;;24.77;;
57551;SDS011;43379;48.160;14.036;2023-02-10T15:33:21;31.63;;;24.60;;
57551;SDS011;43379;48.160;14.036;2023-02-10T15:38:21;34.57;;;25.30;;
57551;SDS011;43379;48.160;14.036;2023-02-10T15:40:51;35.50;;;26.60;;
57551;SDS011;43379;48.160;14.036;2023-02-10T15:43:28;33.97;;;26.77;;
57551;SDS011;43379;48.160;14.036;2023-02-10T15:48:41;32.20;;;24.53;;
57551;SDS011;43379;48.160;14.036;2023-02-10T15:51:09;31.97;;;26.50;;
57551;SDS011;43379;48.160;14.036;2023-02-10T15:53:48;35.70;;;27.90;;
57551;SDS011;43379;48.160;14.036;2023-02-10T15:56:20;33.77;;;27.87;;
57551;SDS011;43379;48.160;14.036;2023-02-10T15:58:47;30.20;;;24.53;;
57551;SDS011;43379;48.160;14.036;2023-02-10T16:01:13;31.90;;;25.60;;
57551;SDS011;43379;48.160;14.036;2023-02-10T16:03:39;34.60;;;26.57;;
57551;SDS011;43379;48.160;14.036;2023-02-10T16:06:05;39.00;;;25.37;;
57551;SDS011;43379;48.160;14.036;2023-02-10T16:08:30;33.17;;;24.40;;
57551;SDS011;43379;48.160;14.036;2023-02-10T16:10:56;29.10;;;23.83;;
57551;SDS011;43379;48.160;14.036;2023-02-10T16:13:22;29.43;;;23.63;;
57551;SDS011;43379;48.160;14.036;2023-02-10T16:15:48;34.10;;;25.77;;
57551;SDS011;43379;48.160;14.036;2023-02-10T16:18:15;31.13;;;25.67;;
57551;SDS011;43379;48.160;14.036;2023-02-10T16:20:45;33.20;;;26.30;;
57551;SDS011;43379;48.160;14.036;2023-02-10T16:23:15;32.03;;;25.00;;
57551;SDS011;43379;48.160;14.036;2023-02-10T16:25:44;33.77;;;25.03;;
57551;SDS011;43379;48.160;14.036;2023-02-10T16:28:15;35.93;;;25.53;;
57551;SDS011;43379;48.160;14.036;2023-02-10T16:30:42;36.87;;;28.07;;
57551;SDS011;43379;48.160;14.036;2023-02-10T16:33:08;32.40;;;25.00;;
57551;SDS011;43379;48.160;14.036;2023-02-10T16:35:35;36.40;;;27.57;;
57551;SDS011;43379;48.160;14.036;2023-02-10T16:38:01;34.63;;;28.77;;
57551;SDS011;43379;48.160;14.036;2023-02-10T16:40:29;37.10;;;27.63;;
57551;SDS011;43379;48.160;14.036;2023-02-10T16:42:57;32.17;;;25.37;;
57551;SDS011;43379;48.160;14.036;2023-02-10T16:45:23;33.80;;;25.63;;
57551;SDS011;43379;48.160;14.036;2023-02-10T16:47:51;35.70;;;28.00;;